createdAt,value
2022-08-09T00:00:08.209Z,4.35
2022-08-09T00:02:49.187Z,4.10
2022-08-09T00:06:18.065Z,3.50
2022-08-09T00:08:10.031Z,3.92
2022-08-09T00:10:38.525Z,4.20
2022-08-09T00:13:17.278Z,4.00
2022-08-09T00:18:31.362Z,3.92
2022-08-09T00:21:05.090Z,3.30
2022-08-09T00:23:55.257Z,3.53
2022-08-09T00:26:29.741Z,3.90
2022-08-09T00:29:00.446Z,3.58
2022-08-09T00:31:58.209Z,3.97
2022-08-09T00:34:14.271Z,3.35
2022-08-09T00:36:42.099Z,3.78
2022-08-09T00:39:16.891Z,3.65
2022-08-09T00:44:14.879Z,4.10
2022-08-09T00:44:43.669Z,3.47
2022-08-09T00:47:15.419Z,3.45
2022-08-09T00:49:52.443Z,3.85
2022-08-09T00:52:19.682Z,3.42
2022-08-09T00:54:48.946Z,3.55
2022-08-09T00:57:24.736Z,3.72
2022-08-09T01:00:05.326Z,3.40
2022-08-09T01:02:49.799Z,3.85
2022-08-09T01:05:50.754Z,3.67
2022-08-09T01:09:00.212Z,4.10
2022-08-09T01:11:59.832Z,3.97
2022-08-09T01:14:42.696Z,3.50
2022-08-09T01:17:19.311Z,3.88
2022-08-09T01:20:06.265Z,4.43
2022-08-09T01:22:55.105Z,4.03
2022-08-09T01:25:37.492Z,4.15
2022-08-09T01:28:09.649Z,3.50
2022-08-09T01:30:51.876Z,4.10
2022-08-09T01:33:21.882Z,3.70
2022-08-09T01:35:53.675Z,3.97
2022-08-09T01:38:23.534Z,4.25
2022-08-09T01:41:05.768Z,3.97
2022-08-09T01:43:47.907Z,4.65
2022-08-09T01:46:31.730Z,4.57
2022-08-09T01:49:10.759Z,3.78
2022-08-09T01:51:42.872Z,3.53
2022-08-09T01:54:11.434Z,4.05
2022-08-09T01:56:40.332Z,4.38
2022-08-09T01:59:09.719Z,3.92
2022-08-09T02:01:59.576Z,3.65
2022-08-09T02:04:24.383Z,3.97
2022-08-09T02:07:15.429Z,4.10
2022-08-09T02:09:59.868Z,3.70
2022-08-09T02:12:30.843Z,4.03
2022-08-09T02:14:59.404Z,3.90
2022-08-09T02:17:59.507Z,4.35
2022-08-09T02:20:15.799Z,3.95
2022-08-09T02:23:09.034Z,3.80
2022-08-09T02:25:42.238Z,3.63
2022-08-09T02:28:17.786Z,3.83
2022-08-09T02:30:47.771Z,4.18
2022-08-09T02:33:20.205Z,3.72
2022-08-09T02:36:02.902Z,3.97
2022-08-09T02:38:34.892Z,4.35
2022-08-09T02:41:13.607Z,4.00
2022-08-09T02:43:54.663Z,4.43
2022-08-09T02:46:23.973Z,4.15
2022-08-09T02:48:51.360Z,4.03
2022-08-09T02:51:18.823Z,4.40
2022-08-09T02:54:00.786Z,4.22
2022-08-09T02:56:28.505Z,4.57
2022-08-09T02:58:55.356Z,4.63
2022-08-09T03:01:29.290Z,4.15
2022-08-09T03:04:17.940Z,3.72
2022-08-09T03:06:46.114Z,3.97
2022-08-09T03:09:16.396Z,4.05
2022-08-09T03:12:10.443Z,4.13
2022-08-09T03:14:32.030Z,4.13
2022-08-09T03:17:01.496Z,4.90
2022-08-09T03:19:57.860Z,5.00
2022-08-09T03:22:25.666Z,4.47
2022-08-09T03:25:21.381Z,4.00
2022-08-09T03:27:51.987Z,4.40
2022-08-09T03:30:30.083Z,4.27
2022-08-09T03:33:05.724Z,4.20
2022-08-09T03:36:11.427Z,4.57
2022-08-09T03:38:30.712Z,4.32
2022-08-09T03:40:58.176Z,4.75
2022-08-09T03:43:25.418Z,4.85
2022-08-09T03:46:03.912Z,4.80
2022-08-09T03:48:51.248Z,4.65
2022-08-09T03:51:43.638Z,3.92
2022-08-09T03:54:10.862Z,4.72
2022-08-09T03:56:41.383Z,4.82
2022-08-09T03:59:13.640Z,4.38
2022-08-09T04:01:44.245Z,4.45
2022-08-09T04:04:14.645Z,4.22
2022-08-09T04:06:44.051Z,3.83
2022-08-09T04:09:41.810Z,4.45
2022-08-09T04:12:30.639Z,4.30
2022-08-09T04:15:02.435Z,4.20
2022-08-09T04:17:42.417Z,4.20
2022-08-09T04:20:11.541Z,4.60
2022-08-09T04:22:41.276Z,3.85
2022-08-09T04:25:11.319Z,4.70
2022-08-09T04:27:41.513Z,4.00
2022-08-09T04:30:13.733Z,4.22
2022-08-09T04:32:41.204Z,4.47
2022-08-09T04:35:13.904Z,4.93
2022-08-09T04:37:46.221Z,4.73
2022-08-09T04:40:28.582Z,4.55
2022-08-09T04:43:00.420Z,4.55
2022-08-09T04:45:28.406Z,3.97
2022-08-09T04:48:04.063Z,4.88
2022-08-09T04:50:37.583Z,4.75
2022-08-09T04:53:13.153Z,5.53
2022-08-09T04:55:58.077Z,4.45
2022-08-09T04:58:27.130Z,4.93
2022-08-09T05:00:54.701Z,5.20
2022-08-09T05:03:40.498Z,5.15
2022-08-09T05:06:08.923Z,4.95
2022-08-09T05:08:35.937Z,4.28
2022-08-09T05:11:03.263Z,4.70
2022-08-09T05:13:33.919Z,4.90
2022-08-09T05:16:05.595Z,4.70
2022-08-09T05:18:38.429Z,5.15
2022-08-09T05:21:24.641Z,4.85
2022-08-09T05:23:58.530Z,4.82
2022-08-09T05:26:36.079Z,3.95
2022-08-09T05:29:04.638Z,4.07
2022-08-09T05:31:44.417Z,4.55
2022-08-09T05:34:16.605Z,4.93
2022-08-09T05:36:47.082Z,5.65
2022-08-09T05:39:28.245Z,4.63
2022-08-09T05:41:55.619Z,4.70
2022-08-09T05:44:29.148Z,3.97
2022-08-09T05:47:00.237Z,4.07
2022-08-09T05:50:30.612Z,4.32
2022-08-09T05:52:14.302Z,4.40
2022-08-09T05:54:42.315Z,4.15
2022-08-09T05:57:12.847Z,4.43
2022-08-09T05:59:44.277Z,4.72
2022-08-09T06:02:12.276Z,6.20
2022-08-09T06:04:44.531Z,6.55
2022-08-09T06:07:21.396Z,6.90
2022-08-09T06:09:54.690Z,7.63
2022-08-09T06:12:29.388Z,11.13
2022-08-09T06:15:00.714Z,10.70
2022-08-09T06:17:39.888Z,12.43
2022-08-09T06:20:08.348Z,12.07
2022-08-09T06:22:35.826Z,13.50
2022-08-09T06:25:03.689Z,14.57
2022-08-09T06:27:42.491Z,13.65
2022-08-09T06:30:10.951Z,15.35
2022-08-09T06:33:00.559Z,12.18
2022-08-09T06:35:35.691Z,13.63
2022-08-09T06:38:15.993Z,11.63
2022-08-09T06:40:43.283Z,11.88
2022-08-09T06:43:10.705Z,13.25
2022-08-09T06:46:05.072Z,13.68
2022-08-09T06:48:26.105Z,13.23
2022-08-09T06:50:59.111Z,12.80
2022-08-09T06:53:25.991Z,12.32
2022-08-09T06:55:53.300Z,12.38
2022-08-09T06:58:40.687Z,13.20
2022-08-09T07:01:07.902Z,12.63
2022-08-09T07:03:39.777Z,12.25
2022-08-09T07:06:20.214Z,12.45
2022-08-09T07:08:49.750Z,12.27
2022-08-09T07:11:17.645Z,12.55
2022-08-09T07:14:05.733Z,13.63
2022-08-09T07:16:42.130Z,13.65
2022-08-09T07:19:23.031Z,12.38
2022-08-09T07:21:57.407Z,13.35
2022-08-09T07:24:32.425Z,16.05
2022-08-09T07:27:10.970Z,13.55
2022-08-09T07:29:57.236Z,13.93
2022-08-09T07:32:33.107Z,14.82
2022-08-09T07:35:11.944Z,13.50
2022-08-09T07:37:45.267Z,14.25
2022-08-09T07:40:17.165Z,13.50
2022-08-09T07:42:59.093Z,13.30
2022-08-09T07:45:37.319Z,13.07
2022-08-09T07:48:06.567Z,15.10
2022-08-09T07:50:36.374Z,12.90
2022-08-09T07:53:04.865Z,13.50
2022-08-09T07:55:41.448Z,12.82
2022-08-09T07:58:19.388Z,11.57
2022-08-09T08:00:58.856Z,12.32
2022-08-09T08:03:36.742Z,11.75
2022-08-09T08:06:04.643Z,9.50
2022-08-09T08:08:59.895Z,10.20
2022-08-09T08:12:25.026Z,9.25
2022-08-09T08:14:06.473Z,10.02
2022-08-09T08:16:34.544Z,8.60
2022-08-09T08:19:03.083Z,9.05
2022-08-09T08:21:31.233Z,8.77
2022-08-09T08:24:01.473Z,8.90
2022-08-09T08:26:41.816Z,7.60
2022-08-09T08:29:28.049Z,7.07
2022-08-09T08:32:03.847Z,5.72
2022-08-09T08:34:33.440Z,4.93
2022-08-09T08:37:01.469Z,5.18
2022-08-09T08:39:28.653Z,5.95
2022-08-09T08:41:58.775Z,5.85
2022-08-09T08:44:28.908Z,5.22
2022-08-09T08:47:02.250Z,5.00
2022-08-09T08:49:47.265Z,5.72
2022-08-09T08:55:06.693Z,5.28
2022-08-09T08:57:34.965Z,5.45
2022-08-09T09:00:12.734Z,6.50
2022-08-09T09:02:52.550Z,4.50
2022-08-09T09:05:33.036Z,6.40
2022-08-09T09:08:30.098Z,5.32
2022-08-09T09:10:59.604Z,5.90
2022-08-09T09:13:41.541Z,5.50
2022-08-09T09:16:09.418Z,3.10
2022-08-09T09:18:36.708Z,3.58
2022-08-09T09:21:06.338Z,3.60
2022-08-09T09:23:49.700Z,4.20
2022-08-09T09:26:26.125Z,3.28
2022-08-09T09:29:03.556Z,3.50
2022-08-09T09:32:06.163Z,3.40
2022-08-09T09:34:24.995Z,3.25
2022-08-09T09:36:56.351Z,3.30
2022-08-09T09:39:55.121Z,3.47
2022-08-09T09:42:25.524Z,4.70
2022-08-09T09:44:57.848Z,3.13
2022-08-09T09:47:25.544Z,3.75
2022-08-09T09:50:14.832Z,3.47
2022-08-09T09:52:54.465Z,3.67
2022-08-09T09:55:32.089Z,3.83
2022-08-09T09:58:17.932Z,3.15
2022-08-09T10:01:04.829Z,3.97
2022-08-09T10:03:56.305Z,3.28
2022-08-09T10:06:31.938Z,3.65
2022-08-09T10:09:01.298Z,3.13
2022-08-09T10:11:59.696Z,3.05
2022-08-09T10:14:36.171Z,2.80
2022-08-09T10:17:40.389Z,3.05
2022-08-09T10:20:00.613Z,2.72
2022-08-09T10:22:41.072Z,2.72
2022-08-09T10:25:12.006Z,2.70
2022-08-09T10:27:55.943Z,2.53
2022-08-09T10:32:11.868Z,2.47
2022-08-09T10:33:29.966Z,2.97
2022-08-09T10:36:00.823Z,3.38
2022-08-09T10:38:54.476Z,2.70
2022-08-09T10:41:16.713Z,3.28
2022-08-09T10:47:00.730Z,3.25
2022-08-09T10:49:51.051Z,2.35
2022-08-09T10:52:33.635Z,2.35
2022-08-09T10:55:24.092Z,3.10
2022-08-09T10:57:51.952Z,2.40
2022-08-09T11:00:31.631Z,2.85
2022-08-09T11:03:14.371Z,2.60
2022-08-09T11:06:18.635Z,2.38
2022-08-09T11:08:51.241Z,2.65
2022-08-09T11:11:20.210Z,2.58
2022-08-09T11:13:53.821Z,2.42
2022-08-09T11:16:39.024Z,2.55
2022-08-09T11:19:10.898Z,2.47
2022-08-09T11:22:10.836Z,2.50
2022-08-09T11:25:04.484Z,2.00
2022-08-09T11:28:04.976Z,2.42
2022-08-09T11:30:32.564Z,2.33
2022-08-09T11:33:11.189Z,2.72
2022-08-09T11:36:07.920Z,2.70
2022-08-09T11:38:41.561Z,2.38
2022-08-09T11:41:13.021Z,1.98
2022-08-09T11:43:48.946Z,2.00
2022-08-09T11:46:18.637Z,2.90
2022-08-09T11:48:59.885Z,2.30
2022-08-09T11:52:56.796Z,2.60
2022-08-09T11:54:28.802Z,2.38
2022-08-09T11:57:47.649Z,2.40
2022-08-09T12:00:28.111Z,2.47
2022-08-09T12:02:56.581Z,2.95
2022-08-09T12:05:39.506Z,2.58
2022-08-09T12:08:12.433Z,2.15
2022-08-09T12:10:54.664Z,2.45
2022-08-09T12:14:09.439Z,2.97
2022-08-09T12:16:38.097Z,2.50
2022-08-09T12:19:09.197Z,2.38
2022-08-09T12:21:51.522Z,2.80
2022-08-09T12:24:23.927Z,2.83
2022-08-09T12:29:12.310Z,2.58
2022-08-09T12:29:52.267Z,2.67
2022-08-09T12:32:26.986Z,3.20
2022-08-09T12:34:58.130Z,3.10
2022-08-09T12:37:50.478Z,3.95
2022-08-09T12:40:19.241Z,3.10
2022-08-09T12:42:46.134Z,2.55
2022-08-09T12:45:33.416Z,2.30
2022-08-09T12:48:04.461Z,2.88
2022-08-09T12:50:31.697Z,3.90
2022-08-09T12:53:18.010Z,2.80
2022-08-09T12:56:14.580Z,2.42
2022-08-09T12:58:34.011Z,2.88
2022-08-09T13:01:04.590Z,2.55
2022-08-09T13:03:54.116Z,2.47
2022-08-09T13:06:34.213Z,2.65
2022-08-09T13:09:24.158Z,2.42
2022-08-09T13:12:02.150Z,2.45
2022-08-09T13:14:40.760Z,2.67
2022-08-09T13:17:43.894Z,3.58
2022-08-09T13:20:14.394Z,2.60
2022-08-09T13:23:05.583Z,2.47
2022-08-09T13:25:42.588Z,2.30
2022-08-09T13:28:11.298Z,2.83
2022-08-09T13:31:11.757Z,2.10
2022-08-09T13:33:51.593Z,2.50
2022-08-09T13:36:39.605Z,2.05
2022-08-09T13:41:31.116Z,3.05
2022-08-09T13:42:03.838Z,2.40
2022-08-09T13:44:31.098Z,2.60
2022-08-09T13:47:25.514Z,3.10
2022-08-09T13:49:58.270Z,1.85
2022-08-09T13:52:30.461Z,2.50
2022-08-09T13:55:00.529Z,2.45
2022-08-09T13:57:35.591Z,2.38
2022-08-09T14:00:15.832Z,2.63
2022-08-09T14:03:16.558Z,1.98
2022-08-09T14:05:58.732Z,2.50
2022-08-09T14:08:23.298Z,2.50
2022-08-09T14:10:52.487Z,1.98
2022-08-09T14:14:16.103Z,1.90
2022-08-09T14:16:11.453Z,2.45
2022-08-09T14:18:43.203Z,1.92
2022-08-09T14:21:17.564Z,2.22
2022-08-09T14:23:54.804Z,2.60
2022-08-09T14:26:33.767Z,2.97
2022-08-09T14:29:07.875Z,3.65
2022-08-09T14:31:54.115Z,1.80
2022-08-09T14:34:30.854Z,2.20
2022-08-09T14:37:06.633Z,2.03
2022-08-09T14:39:40.174Z,3.30
2022-08-09T14:42:12.285Z,2.30
2022-08-09T14:44:59.088Z,2.92
2022-08-09T14:47:41.240Z,2.28
2022-08-09T14:50:13.076Z,2.30
2022-08-09T14:52:43.250Z,2.50
2022-08-09T14:55:20.485Z,2.35
2022-08-09T14:57:48.976Z,2.63
2022-08-09T15:00:16.500Z,1.80
2022-08-09T15:02:47.206Z,2.63
2022-08-09T15:05:16.238Z,2.03
2022-08-09T15:07:45.318Z,2.25
2022-08-09T15:10:14.516Z,1.90
2022-08-09T15:12:45.084Z,2.50
2022-08-09T15:15:13.223Z,1.80
2022-08-09T15:17:42.593Z,2.05
2022-08-09T15:20:15.367Z,1.70
2022-08-09T15:24:06.142Z,1.60
2022-08-09T15:25:53.903Z,2.20
2022-08-09T15:28:27.593Z,2.92
2022-08-09T15:31:02.009Z,1.90
2022-08-09T15:34:17.784Z,2.28
2022-08-09T15:36:25.474Z,2.03
2022-08-09T15:38:56.454Z,2.33
2022-08-09T15:41:23.442Z,1.98
2022-08-09T15:44:00.421Z,1.70
2022-08-09T15:46:33.278Z,2.17
2022-08-09T15:49:21.686Z,2.35
2022-08-09T15:52:03.375Z,2.47
2022-08-09T15:54:44.665Z,1.98
2022-08-09T15:57:19.061Z,1.80
2022-08-09T16:00:00.872Z,2.17
2022-08-09T16:02:27.971Z,2.30
2022-08-09T16:04:54.920Z,3.53
2022-08-09T16:07:21.805Z,7.28
2022-08-09T16:10:02.353Z,6.70
2022-08-09T16:12:33.011Z,4.82
2022-08-09T16:15:00.968Z,3.10
2022-08-09T16:17:28.695Z,2.10
2022-08-09T16:20:04.570Z,3.33
2022-08-09T16:22:36.772Z,3.70
2022-08-09T16:25:10.147Z,4.18
2022-08-09T16:27:37.710Z,2.22
2022-08-09T16:30:15.058Z,2.75
2022-08-09T16:33:11.428Z,2.05
2022-08-09T16:35:56.843Z,1.73
2022-08-09T16:38:26.166Z,1.83
2022-08-09T16:40:53.107Z,1.90
2022-08-09T16:43:20.863Z,2.00
2022-08-09T16:45:48.221Z,1.60
2022-08-09T16:48:50.855Z,1.70
2022-08-09T16:51:14.081Z,2.10
2022-08-09T16:54:25.265Z,2.05
2022-08-09T16:56:32.152Z,2.00
2022-08-09T16:59:01.063Z,1.75
2022-08-09T17:01:34.088Z,1.50
2022-08-09T17:04:03.567Z,1.98
2022-08-09T17:06:33.763Z,2.10
2022-08-09T17:09:45.671Z,1.88
2022-08-09T17:12:06.789Z,1.60
2022-08-09T17:14:36.314Z,1.65
2022-08-09T17:17:03.664Z,1.63
2022-08-09T17:19:47.384Z,2.33
2022-08-09T17:22:31.566Z,1.80
2022-08-09T17:25:02.729Z,1.80
2022-08-09T17:27:34.272Z,2.10
2022-08-09T17:30:07.155Z,2.97
2022-08-09T17:32:44.324Z,2.20
2022-08-09T17:35:13.779Z,1.95
2022-08-09T17:38:12.603Z,2.08
2022-08-09T17:40:29.865Z,1.98
2022-08-09T17:42:59.184Z,3.20
2022-08-09T17:45:37.539Z,2.38
2022-08-09T17:48:15.600Z,2.60
2022-08-09T17:50:56.064Z,3.42
2022-08-09T17:53:23.587Z,2.80
2022-08-09T17:55:55.715Z,3.60
2022-08-09T17:58:27.413Z,2.08
2022-08-09T18:00:56.630Z,2.13
2022-08-09T18:03:25.386Z,2.55
2022-08-09T18:05:53.208Z,1.88
2022-08-09T18:08:21.791Z,2.07
2022-08-09T18:11:02.067Z,2.17
2022-08-09T18:13:38.728Z,1.90
2022-08-09T18:16:17.508Z,3.00
2022-08-09T18:18:56.907Z,2.15
2022-08-09T18:21:24.377Z,2.20
2022-08-09T18:24:10.270Z,1.92
2022-08-09T18:26:45.865Z,2.50
2022-08-09T18:30:39.884Z,3.08
2022-08-09T18:32:00.329Z,5.10
2022-08-09T18:34:31.670Z,9.98
2022-08-09T18:36:58.865Z,8.95
2022-08-09T18:39:25.958Z,8.80
2022-08-09T18:42:08.923Z,7.95
2022-08-09T18:44:36.088Z,4.45
2022-08-09T18:47:07.551Z,3.95
2022-08-09T18:49:43.539Z,3.45
2022-08-09T18:52:14.354Z,4.03
2022-08-09T18:54:49.702Z,2.90
2022-08-09T18:57:22.232Z,3.80
2022-08-09T18:59:55.278Z,3.50
2022-08-09T19:02:31.758Z,3.80
2022-08-09T19:05:03.970Z,3.92
2022-08-09T19:07:59.222Z,3.63
2022-08-09T19:10:37.126Z,3.25
2022-08-09T19:13:23.130Z,3.60
2022-08-09T19:15:56.348Z,2.95
2022-08-09T19:18:33.504Z,2.55
2022-08-09T19:21:09.530Z,2.15
2022-08-09T19:24:37.397Z,2.20
2022-08-09T19:26:31.141Z,1.90
2022-08-09T19:29:01.558Z,2.63
2022-08-09T19:31:43.997Z,2.00
2022-08-09T19:34:21.922Z,2.15
2022-08-09T19:36:51.293Z,1.65
2022-08-09T19:39:20.865Z,1.90
2022-08-09T19:42:07.040Z,1.77
2022-08-09T19:44:34.143Z,2.10
2022-08-09T19:47:01.811Z,2.38
2022-08-09T19:50:09.444Z,1.65
2022-08-09T19:52:16.000Z,1.70
2022-08-09T19:57:12.433Z,1.95
2022-08-09T20:00:06.777Z,2.28
2022-08-09T20:04:09.844Z,1.88
2022-08-09T20:05:16.631Z,1.67
2022-08-09T20:07:59.618Z,2.35
2022-08-09T20:10:34.374Z,2.08
2022-08-09T20:13:02.480Z,2.20
2022-08-09T20:16:32.902Z,2.10
2022-08-09T20:18:18.845Z,2.10
2022-08-09T20:20:46.971Z,2.85
2022-08-09T20:23:14.370Z,2.42
2022-08-09T20:25:51.962Z,2.70
2022-08-09T20:28:31.961Z,2.30
2022-08-09T20:31:11.152Z,2.40
2022-08-09T20:33:43.983Z,2.13
2022-08-09T20:36:11.733Z,2.60
2022-08-09T20:39:07.229Z,2.85
2022-08-09T20:41:32.088Z,2.78
2022-08-09T20:44:02.822Z,2.83
2022-08-09T20:46:33.950Z,2.40
2022-08-09T20:49:10.461Z,2.85
2022-08-09T20:51:41.548Z,2.58
2022-08-09T20:54:12.710Z,2.53
2022-08-09T20:56:49.647Z,2.55
2022-08-09T20:59:50.264Z,2.50
2022-08-09T21:02:08.866Z,2.38
2022-08-09T21:05:52.069Z,2.45
2022-08-09T21:07:30.090Z,2.47
2022-08-09T21:10:06.355Z,2.85
2022-08-09T21:12:35.276Z,3.05
2022-08-09T21:15:02.770Z,2.53
2022-08-09T21:18:21.807Z,2.97
2022-08-09T21:20:22.581Z,2.63
2022-08-09T21:22:54.478Z,2.67
2022-08-09T21:25:44.105Z,2.80
2022-08-09T21:28:35.042Z,3.05
2022-08-09T21:31:17.118Z,3.17
2022-08-09T21:33:51.316Z,2.83
2022-08-09T21:36:25.939Z,3.58
2022-08-09T21:38:57.535Z,2.25
2022-08-09T21:42:04.787Z,2.67
2022-08-09T21:44:32.816Z,2.53
2022-08-09T21:47:03.845Z,2.50
2022-08-09T21:49:39.858Z,2.50
2022-08-09T21:52:14.724Z,2.70
2022-08-09T21:54:51.001Z,3.22
2022-08-09T21:57:37.866Z,2.58
2022-08-09T22:00:26.735Z,3.42
2022-08-09T22:02:59.908Z,3.03
2022-08-09T22:05:35.728Z,2.72
2022-08-09T22:08:05.184Z,3.80
2022-08-09T22:10:33.188Z,3.13
2022-08-09T22:13:07.534Z,3.90
2022-08-09T22:15:38.584Z,3.40
2022-08-09T22:18:12.135Z,3.30
2022-08-09T22:20:40.191Z,2.95
2022-08-09T22:23:10.645Z,3.15
2022-08-09T22:26:08.689Z,3.28
2022-08-09T22:28:32.598Z,3.08
2022-08-09T22:31:00.459Z,3.42
2022-08-09T22:33:37.601Z,3.78
2022-08-09T22:36:14.255Z,3.97
2022-08-09T22:38:46.574Z,4.85
2022-08-09T22:41:13.447Z,3.78
2022-08-09T22:44:03.023Z,4.95
2022-08-09T22:48:12.247Z,3.65
2022-08-09T22:49:14.334Z,3.88
2022-08-09T22:51:49.271Z,4.88
2022-08-09T22:54:21.232Z,4.60
2022-08-09T22:56:54.592Z,3.63
2022-08-09T22:59:57.101Z,4.15
2022-08-09T23:02:10.915Z,3.70
2022-08-09T23:04:42.509Z,4.03
2022-08-09T23:07:31.106Z,3.97
2022-08-09T23:10:16.125Z,4.60
2022-08-09T23:12:43.237Z,4.03
2022-08-09T23:15:10.552Z,3.75
2022-08-09T23:17:37.457Z,3.83
2022-08-09T23:20:07.981Z,3.78
2022-08-09T23:22:35.887Z,3.70
2022-08-09T23:25:06.366Z,3.95
2022-08-09T23:27:33.467Z,4.28
2022-08-09T23:30:00.551Z,3.80
2022-08-09T23:32:27.479Z,4.50
2022-08-09T23:34:54.393Z,4.38
2022-08-09T23:37:21.420Z,4.25
2022-08-09T23:39:49.877Z,4.87
2022-08-09T23:42:16.741Z,4.63
2022-08-09T23:44:43.691Z,4.78
2022-08-09T23:47:10.578Z,4.00
2022-08-09T23:49:37.410Z,3.92
2022-08-09T23:52:04.763Z,4.57
2022-08-09T23:54:31.680Z,4.63
2022-08-09T23:56:59.098Z,4.30
2022-08-09T23:59:46.524Z,4.32
